Carrier Princess — CZ3582 — position and weather

sailwx.info

Track history (hours):
 
Tides and Currents Weather Stations Pressure Air Temp Water Temp Dewpoint Dewpoint Depression Visibility Wind Speed Wind Dir Waves Ship Positions

Carrier Princess

Last reported at 2014-Nov-25 20:34 UTC. Time now 2014-Nov-25 20:53 UTC.
Position N 48°41' W 123°24'.

Length 112 m; draft 3 m.

Type: Cargo ship. MMSI: 316003656.

Date/timePositionNaut miles runAvg speedWind from/ knotsBaromVisibWave heightAir tempDewpointWater temp
2014-Nov-25 20:34N 48°41' W 123°24'0 0.0
2014-Nov-25 19:33N 48°41' W 123°24'0 0.0
2014-Nov-25 18:33N 48°41' W 123°24'0 0.0
2014-Nov-25 17:33N 48°41' W 123°24'0 0.0
2014-Nov-25 16:33N 48°41' W 123°24'0 0.0
2014-Nov-25 15:33N 48°41' W 123°24'0 0.0
2014-Nov-25 14:33N 48°41' W 123°24'0 0.2
2014-Nov-25 13:33N 48°42' W 123°25'9 8.9
2014-Nov-25 12:34N 48°50' W 123°21'1515.0
2014-Nov-25 11:34N 49°05' W 123°22'1312.7
2014-Nov-25 10:33N 49°08' W 123°03'1 0.6
2014-Nov-25 09:33N 49°09' W 123°02'0 0.0
2014-Nov-25 08:33N 49°09' W 123°02'7 7.2
2014-Nov-25 07:33N 49°08' W 123°13'1110.8
2014-Nov-25 06:34N 49°08' W 123°29'1514.8
2014-Nov-25 05:33N 49°13' W 123°51'4 4.2
2014-Nov-25 04:33N 49°10' W 123°56'0 0.2
2014-Nov-25 03:33N 49°10' W 123°56'10 9.9
2014-Nov-25 02:33N 49°12' W 123°41'1515.2
2014-Nov-25 01:34N 49°06' W 123°19'1111.3
2014-Nov-25 00:34N 49°09' W 123°02'0 0.1
2014-Nov-24 23:33N 49°09' W 123°02'0 0.0
2014-Nov-24 22:33N 49°09' W 123°02'0 0.1
2014-Nov-24 21:33N 49°09' W 123°02'0 0.0
2014-Nov-24 20:33N 49°09' W 123°02'0 0.0
2014-Nov-24 19:33N 49°09' W 123°02'0 0.0
2014-Nov-24 18:33N 49°09' W 123°02'0 0.0
2014-Nov-24 17:33N 49°09' W 123°02'0 0.0
2014-Nov-24 16:33N 49°09' W 123°02'0 0.0
2014-Nov-24 15:33N 49°09' W 123°02'0 0.0
2014-Nov-24 14:33N 49°09' W 123°02'0 0.0
2014-Nov-24 13:33N 49°09' W 123°02'0 0.0
2014-Nov-24 12:33N 49°09' W 123°02'0 0.0
2014-Nov-24 11:33N 49°09' W 123°02'0 0.0
2014-Nov-24 10:33N 49°09' W 123°02'0 0.0
2014-Nov-24 09:33N 49°09' W 123°02'0 0.0
2014-Nov-24 08:33N 49°09' W 123°02'0 0.0
2014-Nov-24 07:33N 49°09' W 123°02'0 0.0
2014-Nov-24 06:33N 49°09' W 123°02'0 0.0
2014-Nov-24 05:32N 49°09' W 123°02'0 0.0
2014-Nov-24 04:33N 49°09' W 123°02'0 0.0
2014-Nov-24 03:33N 49°09' W 123°02'0 0.0
2014-Nov-24 02:33N 49°09' W 123°02'0 0.0
2014-Nov-24 01:33N 49°09' W 123°02'0 0.0
2014-Nov-24 00:33N 49°09' W 123°02'0 0.0
2014-Nov-23 23:33N 49°09' W 123°02'0 0.0
2014-Nov-23 22:33N 49°09' W 123°02'0 0.0
2014-Nov-23 21:33N 49°09' W 123°02'0 0.0
2014-Nov-23 20:33N 49°09' W 123°02'0 0.0
2014-Nov-23 19:33N 49°09' W 123°02'0 0.0
2014-Nov-23 18:33N 49°09' W 123°02'0 0.0
2014-Nov-23 17:33N 49°09' W 123°02'0 0.0
2014-Nov-23 16:33N 49°09' W 123°02'1 0.8
2014-Nov-23 15:33N 49°08' W 123°03'9 9.3
2014-Nov-23 14:33N 49°07' W 123°17'10 9.8
2014-Nov-23 13:33N 49°09' W 123°32'1211.8
2014-Nov-23 12:33N 49°13' W 123°49'6 5.6
2014-Nov-23 11:33N 49°10' W 123°56'0 0.0
2014-Nov-23 10:33N 49°10' W 123°56'2 2.4
2014-Nov-23 09:33N 49°12' W 123°53'8 8.4
2014-Nov-23 08:33N 49°12' W 123°40'9 8.6
2014-Nov-23 07:33N 49°08' W 123°29'1111.0
2014-Nov-23 06:34N 49°08' W 123°13'7 6.9
2014-Nov-23 05:33N 49°09' W 123°02'0 0.0
2014-Nov-23 04:33N 49°09' W 123°02'0 0.0
2014-Nov-23 03:33N 49°09' W 123°02'0 0.0
2014-Nov-23 02:33N 49°09' W 123°02'0 0.0
2014-Nov-23 01:33N 49°09' W 123°02'0 0.0
2014-Nov-23 00:33N 49°09' W 123°02'0 0.0
2014-Nov-22 23:33N 49°09' W 123°02'3 3.2
2014-Nov-22 22:33N 49°07' W 123°06'1212.0
2014-Nov-22 21:34N 49°07' W 123°24'1312.5
2014-Nov-22 20:33N 49°12' W 123°42'9 1.8
2014-Nov-22 15:30N 49°10' W 123°56'0 0.0
2014-Nov-22 13:21N 49°10' W 123°56'3 4.2
2014-Nov-22 12:34N 49°12' W 123°52'1312.6
2014-Nov-22 11:33N 49°10' W 123°33'1212.4
2014-Nov-22 10:33N 49°08' W 123°15'8 8.3
2014-Nov-22 09:33N 49°09' W 123°02'0 0.0
2014-Nov-22 08:33N 49°09' W 123°02'7 7.2
2014-Nov-22 07:33N 49°08' W 123°13'1111.3
2014-Nov-22 06:33N 49°09' W 123°30'1413.6
2014-Nov-22 05:33N 49°13' W 123°50'5 4.3
2014-Nov-22 04:29N 49°10' W 123°56'1 0.9
2014-Nov-22 03:33N 49°10' W 123°55'1211.7
2014-Nov-22 02:33N 49°12' W 123°37'1413.7
2014-Nov-22 01:33N 49°06' W 123°18'1010.4
2014-Nov-22 00:33N 49°09' W 123°02'0 0.0
2014-Nov-21 23:33N 49°09' W 123°02'4 4.0
2014-Nov-21 22:33N 49°07' W 123°07'9 9.2
2014-Nov-21 21:34N 49°02' W 123°19'1312.8
2014-Nov-21 20:33N 48°49' W 123°20'8 8.1
2014-Nov-21 19:33N 48°41' W 123°24'0 0.0
2014-Nov-21 18:33N 48°41' W 123°24'0 0.0
2014-Nov-21 17:33N 48°41' W 123°24'0 0.0
2014-Nov-21 16:33N 48°41' W 123°24'0 0.0
2014-Nov-21 15:33N 48°41' W 123°24'0 0.0
2014-Nov-21 14:33N 48°41' W 123°24'0 0.1
2014-Nov-21 13:33N 48°41' W 123°24'4 3.6
2014-Nov-21 12:33N 48°44' W 123°21'1111.4
2014-Nov-21 11:34N 48°55' W 123°18'1111.5
2014-Nov-21 10:34N 49°07' W 123°17'10 9.8
2014-Nov-21 09:33N 49°09' W 123°02'0 0.0
2014-Nov-21 08:33N 49°09' W 123°02'8 8.0
2014-Nov-21 07:34N 49°08' W 123°14'1111.4
2014-Nov-21 06:33N 49°09' W 123°32'1313.0
2014-Nov-21 05:33N 49°13' W 123°51'4 4.1
2014-Nov-21 04:33N 49°10' W 123°56'1 0.6
2014-Nov-21 03:33N 49°10' W 123°55'1110.7
2014-Nov-21 02:33N 49°12' W 123°39'1312.8
2014-Nov-21 01:33N 49°06' W 123°21'1312.5
2014-Nov-21 00:33N 49°09' W 123°02'0 0.1
2014-Nov-20 23:34N 49°09' W 123°02'4 3.7
2014-Nov-20 22:34N 49°07' W 123°07'9 8.6
2014-Nov-20 21:33N 49°03' W 123°19'1212.1
2014-Nov-20 20:33N 48°51' W 123°21'1010.0
2014-Nov-20 19:32N 48°41' W 123°24'0 0.0
2014-Nov-20 18:33N 48°41' W 123°24'0 0.0
2014-Nov-20 17:33N 48°41' W 123°24'0 0.0
2014-Nov-20 16:33N 48°41' W 123°24'0 0.0
2014-Nov-20 15:33N 48°41' W 123°24'0 0.0
2014-Nov-20 14:33N 48°41' W 123°24'0 0.0
2014-Nov-20 13:33N 48°41' W 123°24'3 3.4
2014-Nov-20 12:33N 48°45' W 123°23'1212.1
2014-Nov-20 11:33N 48°56' W 123°19'1211.8
2014-Nov-20 10:34N 49°08' W 123°15'8 8.1
2014-Nov-20 09:33N 49°09' W 123°02'0 0.0
2014-Nov-20 08:33N 49°09' W 123°02'8 7.9
2014-Nov-20 07:34N 49°08' W 123°14'1110.6
2014-Nov-20 06:33N 49°08' W 123°30'1212.5
2014-Nov-20 05:33N 49°13' W 123°48'6 5.8
2014-Nov-20 04:33N 49°10' W 123°56'0 0.1
2014-Nov-20 03:33N 49°10' W 123°56'1110.7
2014-Nov-20 02:33N 49°12' W 123°40'1313.1
2014-Nov-20 01:33N 49°07' W 123°21'1212.5
2014-Nov-20 00:34N 49°09' W 123°02'0 0.2
2014-Nov-19 23:33N 49°09' W 123°02'4 4.1
2014-Nov-19 22:33N 49°06' W 123°07'9 9.0
2014-Nov-19 21:33N 49°02' W 123°19'1211.8
2014-Nov-19 20:33N 48°50' W 123°21'9 8.4
2014-Nov-19 19:29N 48°41' W 123°24'0 0.0
2014-Nov-19 18:34N 48°41' W 123°24'0 0.0
2014-Nov-19 17:32N 48°41' W 123°24'0 0.0
2014-Nov-19 16:31N 48°41' W 123°24'0 0.0
2014-Nov-19 15:32N 48°41' W 123°24'0 0.0
2014-Nov-19 14:33N 48°41' W 123°24'0 0.0
2014-Nov-19 13:32N 48°41' W 123°24'3 3.2
2014-Nov-19 12:33N 48°44' W 123°23'1211.9
2014-Nov-19 11:33N 48°56' W 123°19'1211.7
2014-Nov-19 10:33N 49°07' W 123°15'9 8.7
2014-Nov-19 09:33N 49°09' W 123°02'0 0.0
2014-Nov-19 08:33N 49°09' W 123°02'8 8.3
2014-Nov-19 07:33N 49°08' W 123°15'1212.3
2014-Nov-19 06:33N 49°09' W 123°33'1312.8
2014-Nov-19 05:33N 49°12' W 123°52'3 3.1
2014-Nov-19 04:33N 49°10' W 123°56'0 0.3
2014-Nov-19 03:34N 49°10' W 123°55'1111.2
2014-Nov-19 02:33N 49°11' W 123°38'1313.2
2014-Nov-19 01:33N 49°06' W 123°20'1211.8
2014-Nov-19 00:33N 49°09' W 123°02'0 0.0
2014-Nov-18 23:33N 49°09' W 123°02'5 5.3
2014-Nov-18 22:33N 49°07' W 123°10'7 7.0
2014-Nov-18 21:33N 49°00' W 123°14'1110.9
2014-Nov-18 20:33N 48°50' W 123°21'9 9.0
2014-Nov-18 19:32N 48°41' W 123°24'0 0.0
2014-Nov-18 18:33N 48°41' W 123°24'0 0.0
2014-Nov-18 17:33N 48°41' W 123°24'0 0.0
2014-Nov-18 16:33N 48°41' W 123°24'0 0.0
2014-Nov-18 15:33N 48°41' W 123°24'0 0.0
2014-Nov-18 14:34N 48°41' W 123°24'0 0.0
2014-Nov-18 13:33N 48°41' W 123°24'3 2.7
2014-Nov-18 12:33N 48°43' W 123°21'1212.0
2014-Nov-18 11:33N 48°55' W 123°18'1312.6
2014-Nov-18 10:33N 49°07' W 123°16'9 9.1
2014-Nov-18 09:33N 49°09' W 123°02'0 0.0
2014-Nov-18 08:33N 49°09' W 123°02'8 7.7
2014-Nov-18 07:33N 49°08' W 123°14'1312.9
2014-Nov-18 06:34N 49°09' W 123°33'1313.5
2014-Nov-18 05:34N 49°12' W 123°54'2 2.1
2014-Nov-18 04:33N 49°10' W 123°56'3 3.2
2014-Nov-18 03:33N 49°12' W 123°52'1414.0
2014-Nov-18 02:33N 49°10' W 123°31'1313.1
2014-Nov-18 01:33N 49°07' W 123°12'6 6.4
2014-Nov-18 00:33N 49°09' W 123°02'0 0.0
2014-Nov-17 23:33N 49°09' W 123°02'0 0.0
2014-Nov-17 22:33N 49°09' W 123°02'0 0.0
2014-Nov-17 21:33N 49°09' W 123°02'0 0.0
2014-Nov-17 20:33N 49°09' W 123°02'0 0.0
2014-Nov-17 19:33N 49°09' W 123°02'0 0.0
2014-Nov-17 18:33N 49°09' W 123°02'0 0.0
2014-Nov-17 17:33N 49°09' W 123°02'0 0.0
2014-Nov-17 16:33N 49°09' W 123°02'0 0.0
2014-Nov-17 15:33N 49°09' W 123°02'0 0.1
2014-Nov-17 14:33N 49°09' W 123°02'0 0.0
2014-Nov-17 13:33N 49°09' W 123°02'0 0.0
2014-Nov-17 12:33N 49°09' W 123°02'0 0.0
2014-Nov-17 11:33N 49°09' W 123°02'0 0.0
2014-Nov-17 10:33N 49°09' W 123°02'0 0.0
2014-Nov-17 09:33N 49°09' W 123°02'0 0.0
2014-Nov-17 08:33N 49°09' W 123°02'0 0.0
2014-Nov-17 07:33N 49°09' W 123°02'0 0.0
2014-Nov-17 06:33N 49°09' W 123°02'0 0.0
2014-Nov-17 05:33N 49°09' W 123°02'0 0.0
2014-Nov-17 04:33N 49°09' W 123°02'0 0.0
2014-Nov-17 03:34N 49°09' W 123°02'0 0.0
2014-Nov-17 02:33N 49°09' W 123°02'0 0.0
2014-Nov-17 01:33N 49°09' W 123°02'0 0.0
2014-Nov-17 00:33N 49°09' W 123°02'0 0.0
2014-Nov-16 23:33N 49°09' W 123°02'0 0.0
2014-Nov-16 22:33N 49°09' W 123°02'0 0.0
2014-Nov-16 21:33N 49°09' W 123°02'0 0.0
2014-Nov-16 20:33N 49°09' W 123°02'0 0.0
2014-Nov-16 19:33N 49°09' W 123°02'0 0.0
2014-Nov-16 18:33N 49°09' W 123°02'0 0.0
2014-Nov-16 17:33N 49°09' W 123°02'0 0.0
2014-Nov-16 16:33N 49°09' W 123°02'0 0.4
2014-Nov-16 15:33N 49°09' W 123°03'9 9.5
2014-Nov-16 14:33N 49°07' W 123°17'10 9.5
2014-Nov-16 13:33N 49°09' W 123°31'1211.7
2014-Nov-16 12:33N 49°13' W 123°48'6 5.9
2014-Nov-16 11:33N 49°10' W 123°56'0 0.0
2014-Nov-16 10:33N 49°10' W 123°56'2 2.1
2014-Nov-16 09:33N 49°11' W 123°54'9 8.6
2014-Nov-16 08:33N 49°12' W 123°41'10 9.9
2014-Nov-16 07:33N 49°08' W 123°27'1110.7
2014-Nov-16 06:33N 49°07' W 123°11'6 5.9
2014-Nov-16 05:34N 49°09' W 123°02'0 0.0
2014-Nov-16 04:34N 49°09' W 123°02'0 0.0
2014-Nov-16 03:34N 49°09' W 123°02'0 0.0
2014-Nov-16 02:33N 49°09' W 123°02'0 0.0
2014-Nov-16 01:33N 49°09' W 123°02'0 0.0
2014-Nov-16 00:34N 49°09' W 123°02'0 0.0
2014-Nov-15 23:34N 49°09' W 123°02'4 3.7
2014-Nov-15 22:34N 49°07' W 123°07'8 8.3
2014-Nov-15 21:34N 49°02' W 123°18'  
Track history (hours):
 
Tides and Currents Weather Stations Pressure Air Temp Water Temp Dewpoint Dewpoint Depression Visibility Wind Speed Wind Dir Waves Ship Positions

Carrier Princess

Last reported at 2014-Nov-25 20:34 UTC. Time now 2014-Nov-25 20:53 UTC.
Position N 48°41' W 123°24'.

Length 112 m; draft 3 m.

Type: Cargo ship. MMSI: 316003656.

Date/timePositionNaut miles runAvg speedWind from/ knotsBaromVisibWave heightAir tempDewpointWater temp
2014-Nov-25 20:34N 48°41' W 123°24'0 0.0
2014-Nov-25 19:33N 48°41' W 123°24'0 0.0
2014-Nov-25 18:33N 48°41' W 123°24'0 0.0
2014-Nov-25 17:33N 48°41' W 123°24'0 0.0
2014-Nov-25 16:33N 48°41' W 123°24'0 0.0
2014-Nov-25 15:33N 48°41' W 123°24'0 0.0
2014-Nov-25 14:33N 48°41' W 123°24'0 0.2
2014-Nov-25 13:33N 48°42' W 123°25'9 8.9
2014-Nov-25 12:34N 48°50' W 123°21'1515.0
2014-Nov-25 11:34N 49°05' W 123°22'1312.7
2014-Nov-25 10:33N 49°08' W 123°03'1 0.6
2014-Nov-25 09:33N 49°09' W 123°02'0 0.0
2014-Nov-25 08:33N 49°09' W 123°02'7 7.2
2014-Nov-25 07:33N 49°08' W 123°13'1110.8
2014-Nov-25 06:34N 49°08' W 123°29'1514.8
2014-Nov-25 05:33N 49°13' W 123°51'4 4.2
2014-Nov-25 04:33N 49°10' W 123°56'0 0.2
2014-Nov-25 03:33N 49°10' W 123°56'10 9.9
2014-Nov-25 02:33N 49°12' W 123°41'1515.2
2014-Nov-25 01:34N 49°06' W 123°19'1111.3
2014-Nov-25 00:34N 49°09' W 123°02'0 0.1
2014-Nov-24 23:33N 49°09' W 123°02'0 0.0
2014-Nov-24 22:33N 49°09' W 123°02'0 0.1
2014-Nov-24 21:33N 49°09' W 123°02'0 0.0
2014-Nov-24 20:33N 49°09' W 123°02'0 0.0
2014-Nov-24 19:33N 49°09' W 123°02'0 0.0
2014-Nov-24 18:33N 49°09' W 123°02'0 0.0
2014-Nov-24 17:33N 49°09' W 123°02'0 0.0
2014-Nov-24 16:33N 49°09' W 123°02'0 0.0
2014-Nov-24 15:33N 49°09' W 123°02'0 0.0
2014-Nov-24 14:33N 49°09' W 123°02'0 0.0
2014-Nov-24 13:33N 49°09' W 123°02'0 0.0
2014-Nov-24 12:33N 49°09' W 123°02'0 0.0
2014-Nov-24 11:33N 49°09' W 123°02'0 0.0
2014-Nov-24 10:33N 49°09' W 123°02'0 0.0
2014-Nov-24 09:33N 49°09' W 123°02'0 0.0
2014-Nov-24 08:33N 49°09' W 123°02'0 0.0
2014-Nov-24 07:33N 49°09' W 123°02'0 0.0
2014-Nov-24 06:33N 49°09' W 123°02'0 0.0
2014-Nov-24 05:32N 49°09' W 123°02'0 0.0
2014-Nov-24 04:33N 49°09' W 123°02'0 0.0
2014-Nov-24 03:33N 49°09' W 123°02'0 0.0
2014-Nov-24 02:33N 49°09' W 123°02'0 0.0
2014-Nov-24 01:33N 49°09' W 123°02'0 0.0
2014-Nov-24 00:33N 49°09' W 123°02'0 0.0
2014-Nov-23 23:33N 49°09' W 123°02'0 0.0
2014-Nov-23 22:33N 49°09' W 123°02'0 0.0
2014-Nov-23 21:33N 49°09' W 123°02'0 0.0
2014-Nov-23 20:33N 49°09' W 123°02'0 0.0
2014-Nov-23 19:33N 49°09' W 123°02'0 0.0
2014-Nov-23 18:33N 49°09' W 123°02'0 0.0
2014-Nov-23 17:33N 49°09' W 123°02'0 0.0
2014-Nov-23 16:33N 49°09' W 123°02'1 0.8
2014-Nov-23 15:33N 49°08' W 123°03'9 9.3
2014-Nov-23 14:33N 49°07' W 123°17'10 9.8
2014-Nov-23 13:33N 49°09' W 123°32'1211.8
2014-Nov-23 12:33N 49°13' W 123°49'6 5.6
2014-Nov-23 11:33N 49°10' W 123°56'0 0.0
2014-Nov-23 10:33N 49°10' W 123°56'2 2.4
2014-Nov-23 09:33N 49°12' W 123°53'8 8.4
2014-Nov-23 08:33N 49°12' W 123°40'9 8.6
2014-Nov-23 07:33N 49°08' W 123°29'1111.0
2014-Nov-23 06:34N 49°08' W 123°13'7 6.9
2014-Nov-23 05:33N 49°09' W 123°02'0 0.0
2014-Nov-23 04:33N 49°09' W 123°02'0 0.0
2014-Nov-23 03:33N 49°09' W 123°02'0 0.0
2014-Nov-23 02:33N 49°09' W 123°02'0 0.0
2014-Nov-23 01:33N 49°09' W 123°02'0 0.0
2014-Nov-23 00:33N 49°09' W 123°02'0 0.0
2014-Nov-22 23:33N 49°09' W 123°02'3 3.2
2014-Nov-22 22:33N 49°07' W 123°06'1212.0
2014-Nov-22 21:34N 49°07' W 123°24'1312.5
2014-Nov-22 20:33N 49°12' W 123°42'9 1.8
2014-Nov-22 15:30N 49°10' W 123°56'0 0.0
2014-Nov-22 13:21N 49°10' W 123°56'3 4.2
2014-Nov-22 12:34N 49°12' W 123°52'1312.6
2014-Nov-22 11:33N 49°10' W 123°33'1212.4
2014-Nov-22 10:33N 49°08' W 123°15'8 8.3
2014-Nov-22 09:33N 49°09' W 123°02'0 0.0
2014-Nov-22 08:33N 49°09' W 123°02'7 7.2
2014-Nov-22 07:33N 49°08' W 123°13'1111.3
2014-Nov-22 06:33N 49°09' W 123°30'1413.6
2014-Nov-22 05:33N 49°13' W 123°50'5 4.3
2014-Nov-22 04:29N 49°10' W 123°56'1 0.9
2014-Nov-22 03:33N 49°10' W 123°55'1211.7
2014-Nov-22 02:33N 49°12' W 123°37'1413.7
2014-Nov-22 01:33N 49°06' W 123°18'1010.4
2014-Nov-22 00:33N 49°09' W 123°02'0 0.0
2014-Nov-21 23:33N 49°09' W 123°02'4 4.0
2014-Nov-21 22:33N 49°07' W 123°07'9 9.2
2014-Nov-21 21:34N 49°02' W 123°19'1312.8
2014-Nov-21 20:33N 48°49' W 123°20'8 8.1
2014-Nov-21 19:33N 48°41' W 123°24'0 0.0
2014-Nov-21 18:33N 48°41' W 123°24'0 0.0
2014-Nov-21 17:33N 48°41' W 123°24'0 0.0
2014-Nov-21 16:33N 48°41' W 123°24'0 0.0
2014-Nov-21 15:33N 48°41' W 123°24'0 0.0
2014-Nov-21 14:33N 48°41' W 123°24'0 0.1
2014-Nov-21 13:33N 48°41' W 123°24'4 3.6
2014-Nov-21 12:33N 48°44' W 123°21'1111.4
2014-Nov-21 11:34N 48°55' W 123°18'1111.5
2014-Nov-21 10:34N 49°07' W 123°17'10 9.8
2014-Nov-21 09:33N 49°09' W 123°02'0 0.0
2014-Nov-21 08:33N 49°09' W 123°02'8 8.0
2014-Nov-21 07:34N 49°08' W 123°14'1111.4
2014-Nov-21 06:33N 49°09' W 123°32'1313.0
2014-Nov-21 05:33N 49°13' W 123°51'4 4.1
2014-Nov-21 04:33N 49°10' W 123°56'1 0.6
2014-Nov-21 03:33N 49°10' W 123°55'1110.7
2014-Nov-21 02:33N 49°12' W 123°39'1312.8
2014-Nov-21 01:33N 49°06' W 123°21'1312.5
2014-Nov-21 00:33N 49°09' W 123°02'0 0.1
2014-Nov-20 23:34N 49°09' W 123°02'4 3.7
2014-Nov-20 22:34N 49°07' W 123°07'9 8.6
2014-Nov-20 21:33N 49°03' W 123°19'1212.1
2014-Nov-20 20:33N 48°51' W 123°21'1010.0
2014-Nov-20 19:32N 48°41' W 123°24'0 0.0
2014-Nov-20 18:33N 48°41' W 123°24'0 0.0
2014-Nov-20 17:33N 48°41' W 123°24'0 0.0
2014-Nov-20 16:33N 48°41' W 123°24'0 0.0
2014-Nov-20 15:33N 48°41' W 123°24'0 0.0
2014-Nov-20 14:33N 48°41' W 123°24'0 0.0
2014-Nov-20 13:33N 48°41' W 123°24'3 3.4
2014-Nov-20 12:33N 48°45' W 123°23'1212.1
2014-Nov-20 11:33N 48°56' W 123°19'1211.8
2014-Nov-20 10:34N 49°08' W 123°15'8 8.1
2014-Nov-20 09:33N 49°09' W 123°02'0 0.0
2014-Nov-20 08:33N 49°09' W 123°02'8 7.9
2014-Nov-20 07:34N 49°08' W 123°14'1110.6
2014-Nov-20 06:33N 49°08' W 123°30'1212.5
2014-Nov-20 05:33N 49°13' W 123°48'6 5.8
2014-Nov-20 04:33N 49°10' W 123°56'0 0.1
2014-Nov-20 03:33N 49°10' W 123°56'1110.7
2014-Nov-20 02:33N 49°12' W 123°40'1313.1
2014-Nov-20 01:33N 49°07' W 123°21'1212.5
2014-Nov-20 00:34N 49°09' W 123°02'0 0.2
2014-Nov-19 23:33N 49°09' W 123°02'4 4.1
2014-Nov-19 22:33N 49°06' W 123°07'9 9.0
2014-Nov-19 21:33N 49°02' W 123°19'1211.8
2014-Nov-19 20:33N 48°50' W 123°21'9 8.4
2014-Nov-19 19:29N 48°41' W 123°24'0 0.0
2014-Nov-19 18:34N 48°41' W 123°24'0 0.0
2014-Nov-19 17:32N 48°41' W 123°24'0 0.0
2014-Nov-19 16:31N 48°41' W 123°24'0 0.0
2014-Nov-19 15:32N 48°41' W 123°24'0 0.0
2014-Nov-19 14:33N 48°41' W 123°24'0 0.0
2014-Nov-19 13:32N 48°41' W 123°24'3 3.2
2014-Nov-19 12:33N 48°44' W 123°23'1211.9
2014-Nov-19 11:33N 48°56' W 123°19'1211.7
2014-Nov-19 10:33N 49°07' W 123°15'9 8.7
2014-Nov-19 09:33N 49°09' W 123°02'0 0.0
2014-Nov-19 08:33N 49°09' W 123°02'8 8.3
2014-Nov-19 07:33N 49°08' W 123°15'1212.3
2014-Nov-19 06:33N 49°09' W 123°33'1312.8
2014-Nov-19 05:33N 49°12' W 123°52'3 3.1
2014-Nov-19 04:33N 49°10' W 123°56'0 0.3
2014-Nov-19 03:34N 49°10' W 123°55'1111.2
2014-Nov-19 02:33N 49°11' W 123°38'1313.2
2014-Nov-19 01:33N 49°06' W 123°20'1211.8
2014-Nov-19 00:33N 49°09' W 123°02'0 0.0
2014-Nov-18 23:33N 49°09' W 123°02'5 5.3
2014-Nov-18 22:33N 49°07' W 123°10'7 7.0
2014-Nov-18 21:33N 49°00' W 123°14'1110.9
2014-Nov-18 20:33N 48°50' W 123°21'9 9.0
2014-Nov-18 19:32N 48°41' W 123°24'0 0.0
2014-Nov-18 18:33N 48°41' W 123°24'0 0.0
2014-Nov-18 17:33N 48°41' W 123°24'0 0.0
2014-Nov-18 16:33N 48°41' W 123°24'0 0.0
2014-Nov-18 15:33N 48°41' W 123°24'0 0.0
2014-Nov-18 14:34N 48°41' W 123°24'0 0.0
2014-Nov-18 13:33N 48°41' W 123°24'3 2.7
2014-Nov-18 12:33N 48°43' W 123°21'1212.0
2014-Nov-18 11:33N 48°55' W 123°18'1312.6
2014-Nov-18 10:33N 49°07' W 123°16'9 9.1
2014-Nov-18 09:33N 49°09' W 123°02'0 0.0
2014-Nov-18 08:33N 49°09' W 123°02'8 7.7
2014-Nov-18 07:33N 49°08' W 123°14'1312.9
2014-Nov-18 06:34N 49°09' W 123°33'1313.5
2014-Nov-18 05:34N 49°12' W 123°54'2 2.1
2014-Nov-18 04:33N 49°10' W 123°56'3 3.2
2014-Nov-18 03:33N 49°12' W 123°52'1414.0
2014-Nov-18 02:33N 49°10' W 123°31'1313.1
2014-Nov-18 01:33N 49°07' W 123°12'6 6.4
2014-Nov-18 00:33N 49°09' W 123°02'0 0.0
2014-Nov-17 23:33N 49°09' W 123°02'0 0.0
2014-Nov-17 22:33N 49°09' W 123°02'0 0.0
2014-Nov-17 21:33N 49°09' W 123°02'0 0.0
2014-Nov-17 20:33N 49°09' W 123°02'0 0.0
2014-Nov-17 19:33N 49°09' W 123°02'0 0.0
2014-Nov-17 18:33N 49°09' W 123°02'0 0.0
2014-Nov-17 17:33N 49°09' W 123°02'0 0.0
2014-Nov-17 16:33N 49°09' W 123°02'0 0.0
2014-Nov-17 15:33N 49°09' W 123°02'0 0.1
2014-Nov-17 14:33N 49°09' W 123°02'0 0.0
2014-Nov-17 13:33N 49°09' W 123°02'0 0.0
2014-Nov-17 12:33N 49°09' W 123°02'0 0.0
2014-Nov-17 11:33N 49°09' W 123°02'0 0.0
2014-Nov-17 10:33N 49°09' W 123°02'0 0.0
2014-Nov-17 09:33N 49°09' W 123°02'0 0.0
2014-Nov-17 08:33N 49°09' W 123°02'0 0.0
2014-Nov-17 07:33N 49°09' W 123°02'0 0.0
2014-Nov-17 06:33N 49°09' W 123°02'0 0.0
2014-Nov-17 05:33N 49°09' W 123°02'0 0.0
2014-Nov-17 04:33N 49°09' W 123°02'0 0.0
2014-Nov-17 03:34N 49°09' W 123°02'0 0.0
2014-Nov-17 02:33N 49°09' W 123°02'0 0.0
2014-Nov-17 01:33N 49°09' W 123°02'0 0.0
2014-Nov-17 00:33N 49°09' W 123°02'0 0.0
2014-Nov-16 23:33N 49°09' W 123°02'0 0.0
2014-Nov-16 22:33N 49°09' W 123°02'0 0.0
2014-Nov-16 21:33N 49°09' W 123°02'0 0.0
2014-Nov-16 20:33N 49°09' W 123°02'0 0.0
2014-Nov-16 19:33N 49°09' W 123°02'0 0.0
2014-Nov-16 18:33N 49°09' W 123°02'0 0.0
2014-Nov-16 17:33N 49°09' W 123°02'0 0.0
2014-Nov-16 16:33N 49°09' W 123°02'0 0.4
2014-Nov-16 15:33N 49°09' W 123°03'9 9.5
2014-Nov-16 14:33N 49°07' W 123°17'10 9.5
2014-Nov-16 13:33N 49°09' W 123°31'1211.7
2014-Nov-16 12:33N 49°13' W 123°48'6 5.9
2014-Nov-16 11:33N 49°10' W 123°56'0 0.0
2014-Nov-16 10:33N 49°10' W 123°56'2 2.1
2014-Nov-16 09:33N 49°11' W 123°54'9 8.6
2014-Nov-16 08:33N 49°12' W 123°41'10 9.9
2014-Nov-16 07:33N 49°08' W 123°27'1110.7
2014-Nov-16 06:33N 49°07' W 123°11'6 5.9
2014-Nov-16 05:34N 49°09' W 123°02'0 0.0
2014-Nov-16 04:34N 49°09' W 123°02'0 0.0
2014-Nov-16 03:34N 49°09' W 123°02'0 0.0
2014-Nov-16 02:33N 49°09' W 123°02'0 0.0
2014-Nov-16 01:33N 49°09' W 123°02'0 0.0
2014-Nov-16 00:34N 49°09' W 123°02'0 0.0
2014-Nov-15 23:34N 49°09' W 123°02'4 3.7
2014-Nov-15 22:34N 49°07' W 123°07'8 8.3
2014-Nov-15 21:34N 49°02' W 123°18'  

Dump ship's entire track history